createdAt,value
2023-02-22T00:00:29.337Z,10.80
2023-02-22T00:03:27.897Z,6.80
2023-02-22T00:06:02.612Z,5.50
2023-02-22T00:08:37.496Z,5.80
2023-02-22T00:11:10.026Z,11.80
2023-02-22T00:13:38.232Z,10.90
2023-02-22T00:16:06.748Z,13.30
2023-02-22T00:18:35.073Z,10.40
2023-02-22T00:21:03.166Z,13.00
2023-02-22T00:23:32.023Z,8.30
2023-02-22T00:26:00.083Z,8.20
2023-02-22T00:28:28.180Z,12.20
2023-02-22T00:30:56.509Z,6.30
2023-02-22T00:33:24.953Z,9.80
2023-02-22T00:35:52.945Z,10.10
2023-02-22T00:38:20.869Z,8.60
2023-02-22T00:40:48.926Z,8.10
2023-02-22T00:43:18.531Z,11.20
2023-02-22T00:45:49.379Z,6.90
2023-02-22T00:48:18.874Z,7.00
2023-02-22T00:50:48.614Z,12.60
2023-02-22T00:53:16.723Z,8.80
2023-02-22T00:55:44.719Z,9.80
2023-02-22T00:58:12.929Z,14.10
2023-02-22T01:00:41.782Z,7.40
2023-02-22T01:03:11.135Z,9.00
2023-02-22T01:05:39.387Z,10.10
2023-02-22T01:08:08.320Z,7.90
2023-02-22T01:10:36.736Z,8.00
2023-02-22T01:13:09.155Z,9.00
2023-02-22T01:15:39.082Z,11.50
2023-02-22T01:18:07.128Z,8.50
2023-02-22T01:20:35.159Z,2.70
2023-02-22T01:23:06.634Z,6.90
2023-02-22T01:25:35.300Z,6.90
2023-02-22T01:28:04.880Z,8.40
2023-02-22T01:30:34.163Z,8.30
2023-02-22T01:33:03.229Z,7.10
2023-02-22T01:35:33.172Z,14.00
2023-02-22T01:38:01.472Z,8.60
2023-02-22T01:40:31.468Z,10.30
2023-02-22T01:43:01.107Z,7.50
2023-02-22T01:45:34.981Z,8.00
2023-02-22T01:48:06.171Z,6.50
2023-02-22T01:50:37.779Z,7.60
2023-02-22T01:53:06.932Z,8.30
2023-02-22T01:55:34.963Z,10.00
2023-02-22T01:58:03.742Z,9.00
2023-02-22T02:00:32.249Z,10.10
2023-02-22T02:03:02.792Z,7.70
2023-02-22T02:05:34.344Z,6.20
2023-02-22T02:08:09.939Z,6.10
2023-02-22T02:10:38.010Z,9.20
2023-02-22T02:13:06.907Z,4.80
2023-02-22T02:15:34.898Z,3.10
2023-02-22T02:18:06.283Z,4.50
2023-02-22T02:21:04.874Z,8.50
2023-02-22T02:23:45.621Z,7.40
2023-02-22T02:26:43.150Z,7.30
2023-02-22T02:29:29.385Z,10.00
2023-02-22T02:32:03.461Z,8.30
2023-02-22T02:35:01.182Z,4.20
2023-02-22T02:37:48.901Z,4.40
2023-02-22T02:40:19.959Z,10.00
2023-02-22T02:43:01.414Z,6.40
2023-02-22T02:45:52.554Z,9.80
2023-02-22T02:48:22.349Z,14.60
2023-02-22T02:50:50.307Z,15.50
2023-02-22T02:53:21.942Z,5.40
2023-02-22T02:55:50.966Z,11.70
2023-02-22T02:58:20.961Z,12.00
2023-02-22T03:00:50.481Z,13.20
2023-02-22T03:03:29.303Z,16.10
2023-02-22T03:06:11.002Z,15.80
2023-02-22T03:08:43.359Z,15.50
2023-02-22T03:11:21.507Z,12.70
2023-02-22T03:14:01.595Z,16.90
2023-02-22T03:16:42.232Z,13.70
2023-02-22T03:19:32.309Z,14.00
2023-02-22T03:22:16.668Z,14.90
2023-02-22T03:24:59.172Z,15.60
2023-02-22T03:27:30.174Z,9.50
2023-02-22T03:30:02.545Z,16.80
2023-02-22T03:32:33.447Z,11.40
2023-02-22T03:35:04.555Z,12.60
2023-02-22T03:37:35.331Z,11.00
2023-02-22T03:40:14.059Z,8.10
2023-02-22T03:42:50.606Z,16.00
2023-02-22T03:45:19.453Z,18.00
2023-02-22T03:47:50.511Z,14.60
2023-02-22T03:50:19.199Z,13.40
2023-02-22T03:52:47.618Z,11.10
2023-02-22T03:55:21.799Z,14.50
2023-02-22T03:57:51.839Z,13.40
2023-02-22T04:00:22.982Z,13.10
2023-02-22T04:02:51.377Z,10.60
2023-02-22T04:09:38.150Z,9.20
2023-02-22T04:12:06.737Z,11.90
2023-02-22T04:14:48.872Z,13.00
2023-02-22T04:17:17.409Z,8.00
2023-02-22T04:19:46.003Z,16.00
2023-02-22T04:22:15.056Z,10.70
2023-02-22T04:24:43.030Z,10.60
2023-02-22T04:27:11.459Z,7.10
2023-02-22T04:29:39.941Z,10.80
2023-02-22T04:32:08.509Z,7.20
2023-02-22T04:34:36.616Z,12.80
2023-02-22T04:37:04.643Z,12.10
2023-02-22T04:39:33.873Z,14.00
2023-02-22T04:42:02.003Z,10.70
2023-02-22T04:44:30.077Z,15.30
2023-02-22T04:46:58.154Z,13.60
2023-02-22T04:49:26.236Z,11.10
2023-02-22T04:51:55.503Z,14.10
2023-02-22T04:54:28.406Z,20.40
2023-02-22T04:56:57.830Z,18.10
2023-02-22T04:59:25.986Z,17.70
2023-02-22T05:01:57.315Z,14.10
2023-02-22T05:04:25.258Z,14.30
2023-02-22T05:06:55.032Z,14.10
2023-02-22T05:09:23.141Z,18.90
2023-02-22T05:11:51.225Z,16.50
2023-02-22T05:14:19.233Z,16.20
2023-02-22T05:16:50.013Z,15.80
2023-02-22T05:19:18.141Z,13.20
2023-02-22T05:21:46.072Z,13.30
2023-02-22T05:24:14.310Z,15.30
2023-02-22T05:26:45.673Z,16.30
2023-02-22T05:29:13.923Z,21.00
2023-02-22T05:31:42.172Z,15.90
2023-02-22T05:34:10.474Z,18.70
2023-02-22T05:36:38.601Z,17.90
2023-02-22T05:39:06.609Z,17.60
2023-02-22T05:41:34.685Z,17.40
2023-02-22T05:44:03.205Z,14.70
2023-02-22T05:46:31.262Z,13.30
2023-02-22T05:48:59.265Z,13.70
2023-02-22T05:51:27.378Z,10.70
2023-02-22T05:53:55.380Z,11.70
2023-02-22T05:56:25.155Z,9.40
2023-02-22T05:58:53.390Z,15.10
2023-02-22T06:01:21.787Z,11.50
2023-02-22T06:03:50.492Z,12.10
2023-02-22T06:06:22.104Z,12.20
2023-02-22T06:08:50.614Z,9.70
2023-02-22T06:11:19.937Z,10.50
2023-02-22T06:13:51.954Z,11.80
2023-02-22T06:16:21.548Z,12.60
2023-02-22T06:18:49.614Z,13.30
2023-02-22T06:21:18.017Z,13.40
2023-02-22T06:23:46.231Z,11.90
2023-02-22T06:26:17.405Z,14.60
2023-02-22T06:28:46.353Z,13.20
2023-02-22T06:31:14.576Z,15.00
2023-02-22T06:33:43.008Z,10.60
2023-02-22T06:36:11.700Z,11.50
2023-02-22T06:38:39.734Z,10.20
2023-02-22T06:41:08.898Z,9.80
2023-02-22T06:43:37.153Z,8.70
2023-02-22T06:46:05.580Z,9.70
2023-02-22T06:48:33.538Z,8.40
2023-02-22T06:51:01.428Z,12.20
2023-02-22T06:53:29.382Z,8.70
2023-02-22T06:55:57.433Z,8.80
2023-02-22T06:58:25.470Z,11.60
2023-02-22T07:00:53.675Z,11.20
2023-02-22T07:03:21.807Z,11.40
2023-02-22T07:05:49.741Z,7.40
2023-02-22T07:08:17.713Z,8.00
2023-02-22T07:10:45.732Z,8.50
2023-02-22T07:13:15.602Z,10.20
2023-02-22T07:15:43.629Z,8.40
2023-02-22T07:18:12.285Z,6.60
2023-02-22T07:20:40.585Z,7.80
2023-02-22T07:23:08.529Z,6.10
2023-02-22T07:25:36.496Z,6.50
2023-02-22T07:28:04.581Z,6.10
2023-02-22T07:30:34.250Z,7.60
2023-02-22T07:33:04.494Z,7.20
2023-02-22T07:35:37.976Z,7.40
2023-02-22T07:38:08.252Z,8.40
2023-02-22T07:40:37.341Z,6.50
2023-02-22T07:43:13.976Z,9.10
2023-02-22T07:45:42.165Z,9.50
2023-02-22T07:48:10.518Z,7.10
2023-02-22T07:50:38.668Z,9.40
2023-02-22T07:53:11.158Z,5.50
2023-02-22T07:55:39.212Z,7.50
2023-02-22T07:58:08.216Z,8.70
2023-02-22T08:00:38.014Z,6.30
2023-02-22T08:03:08.009Z,8.20
2023-02-22T08:05:37.075Z,6.20
2023-02-22T08:08:06.228Z,8.00
2023-02-22T08:10:35.253Z,6.50
2023-02-22T08:13:03.996Z,7.70
2023-02-22T08:15:36.802Z,7.60
2023-02-22T08:18:06.654Z,6.80
2023-02-22T08:20:34.954Z,5.90
2023-02-22T08:23:03.455Z,7.80
2023-02-22T08:25:31.632Z,6.60
2023-02-22T08:28:04.699Z,8.00
2023-02-22T08:30:35.021Z,8.60
2023-02-22T08:33:03.512Z,8.10
2023-02-22T08:35:32.535Z,9.50
2023-02-22T08:38:02.756Z,10.90
2023-02-22T08:40:32.712Z,7.50
2023-02-22T08:43:01.802Z,7.60
2023-02-22T08:45:29.961Z,7.70
2023-02-22T08:47:58.690Z,5.80
2023-02-22T08:50:28.959Z,9.00
2023-02-22T08:52:59.466Z,7.00
2023-02-22T08:55:30.222Z,8.20
2023-02-22T08:57:59.513Z,6.30
2023-02-22T09:00:29.703Z,6.40
2023-02-22T09:02:57.833Z,7.70
2023-02-22T09:05:26.237Z,5.10
2023-02-22T09:07:54.424Z,5.40
2023-02-22T09:10:24.655Z,5.90
2023-02-22T09:12:55.510Z,3.40
2023-02-22T09:15:24.137Z,4.30
2023-02-22T09:17:55.190Z,4.50
2023-02-22T09:20:23.745Z,3.70
2023-02-22T09:22:51.946Z,5.80
2023-02-22T09:25:20.820Z,3.50
2023-02-22T09:27:49.887Z,3.30
2023-02-22T09:30:32.658Z,2.30
2023-02-22T09:33:11.396Z,4.00
2023-02-22T09:35:42.696Z,3.00
2023-02-22T09:38:11.764Z,5.00
2023-02-22T09:40:45.227Z,3.60
2023-02-22T09:43:31.548Z,3.40
2023-02-22T09:46:19.336Z,3.40
2023-02-22T09:48:58.026Z,3.50
2023-02-22T09:51:30.609Z,4.10
2023-02-22T09:54:00.348Z,5.70
2023-02-22T09:56:29.417Z,4.00
2023-02-22T09:59:01.077Z,4.40
2023-02-22T10:01:36.525Z,2.80
2023-02-22T10:04:23.204Z,2.20
2023-02-22T10:07:14.701Z,4.40
2023-02-22T10:09:42.876Z,4.40
2023-02-22T10:12:31.111Z,3.80
2023-02-22T10:15:16.903Z,3.90
2023-02-22T10:18:00.030Z,3.70
2023-02-22T10:20:47.842Z,3.20
2023-02-22T10:23:36.884Z,3.80
2023-02-22T10:26:21.160Z,3.70
2023-02-22T10:28:52.793Z,4.20
2023-02-22T10:31:27.483Z,2.10
2023-02-22T10:34:03.689Z,1.80
2023-02-22T10:36:31.922Z,3.10
2023-02-22T10:39:11.162Z,1.70
2023-02-22T10:41:42.789Z,5.50
2023-02-22T10:44:10.804Z,4.00
2023-02-22T10:46:39.915Z,4.60
2023-02-22T10:49:07.888Z,4.70
2023-02-22T10:51:35.922Z,3.40
2023-02-22T10:54:26.806Z,5.80
2023-02-22T10:56:55.840Z,4.50
2023-02-22T10:59:28.578Z,4.20
2023-02-22T11:01:56.628Z,5.90
2023-02-22T11:04:25.076Z,6.00
2023-02-22T11:06:58.856Z,5.10
2023-02-22T11:09:29.114Z,4.80
2023-02-22T11:12:11.169Z,3.50
2023-02-22T11:14:39.289Z,4.50
2023-02-22T11:17:07.947Z,4.50
2023-02-22T11:19:38.543Z,5.00
2023-02-22T11:22:17.103Z,4.50
2023-02-22T11:24:57.764Z,4.60
2023-02-22T11:27:38.694Z,4.60
2023-02-22T11:30:36.577Z,4.10
2023-02-22T11:33:23.895Z,4.70
2023-02-22T11:35:52.969Z,3.80
2023-02-22T11:38:28.423Z,3.50
2023-02-22T11:41:15.526Z,2.00
2023-02-22T11:43:44.926Z,1.90
2023-02-22T11:46:20.713Z,1.90
2023-02-22T11:48:55.080Z,2.00
2023-02-22T11:51:46.036Z,2.90
2023-02-22T11:54:35.086Z,2.60
2023-02-22T11:57:22.381Z,3.00
2023-02-22T12:00:16.579Z,2.80
2023-02-22T12:02:57.321Z,3.60
2023-02-22T12:05:59.965Z,5.50
2023-02-22T12:08:43.002Z,3.50
2023-02-22T12:11:18.381Z,3.40
2023-02-22T12:13:58.637Z,4.00
2023-02-22T12:16:32.770Z,3.70
2023-02-22T12:19:06.546Z,4.50
2023-02-22T12:21:34.600Z,5.50
2023-02-22T12:24:14.525Z,3.70
2023-02-22T12:26:47.258Z,3.90
2023-02-22T12:29:27.279Z,6.60
2023-02-22T12:32:05.003Z,4.10
2023-02-22T12:34:41.585Z,4.80
2023-02-22T12:37:22.417Z,5.00
2023-02-22T12:40:13.564Z,3.80
2023-02-22T12:42:53.653Z,3.50
2023-02-22T12:45:28.598Z,4.30
2023-02-22T12:48:27.566Z,5.10
2023-02-22T12:50:59.083Z,4.60
2023-02-22T12:53:35.310Z,6.00
2023-02-22T12:56:28.286Z,5.00
2023-02-22T12:59:19.362Z,7.40
2023-02-22T13:01:51.974Z,4.40
2023-02-22T13:04:21.478Z,5.10
2023-02-22T13:07:11.247Z,4.00
2023-02-22T13:09:51.353Z,4.20
2023-02-22T13:12:28.746Z,5.10
2023-02-22T13:15:05.815Z,3.80
2023-02-22T13:18:01.891Z,2.40
2023-02-22T13:20:41.433Z,4.20
2023-02-22T13:23:19.339Z,5.00
2023-02-22T13:25:58.187Z,4.40
2023-02-22T13:28:54.928Z,4.60
2023-02-22T13:31:55.052Z,5.40
2023-02-22T13:34:50.814Z,4.70
2023-02-22T13:37:24.752Z,3.20
2023-02-22T13:40:20.427Z,3.20
2023-02-22T13:43:25.465Z,4.70
2023-02-22T13:46:05.413Z,4.30
2023-02-22T13:49:08.783Z,4.40
2023-02-22T13:51:52.919Z,4.40
2023-02-22T13:54:29.929Z,5.90
2023-02-22T13:56:58.341Z,4.30
2023-02-22T13:59:36.674Z,2.90
2023-02-22T14:02:05.728Z,6.80
2023-02-22T14:04:38.253Z,5.00
2023-02-22T14:07:18.342Z,6.00
2023-02-22T14:09:56.641Z,5.00
2023-02-22T14:12:30.889Z,6.70
2023-02-22T14:15:27.708Z,4.10
2023-02-22T14:17:57.006Z,4.10
2023-02-22T14:20:32.550Z,5.10
2023-02-22T14:23:40.462Z,5.80
2023-02-22T14:26:17.955Z,6.00
2023-02-22T14:29:21.906Z,4.70
2023-02-22T14:31:52.555Z,5.70
2023-02-22T14:34:21.995Z,5.30
2023-02-22T14:36:52.973Z,6.10
2023-02-22T14:39:23.246Z,6.80
2023-02-22T14:42:05.894Z,6.40
2023-02-22T14:44:40.738Z,6.70
2023-02-22T14:47:14.409Z,6.00
2023-02-22T14:49:44.027Z,7.90
2023-02-22T14:52:39.005Z,6.20
2023-02-22T14:55:11.919Z,5.40
2023-02-22T14:58:19.758Z,4.70
2023-02-22T15:00:52.982Z,8.00
2023-02-22T15:03:24.046Z,7.20
2023-02-22T15:05:52.061Z,7.00
2023-02-22T15:08:28.144Z,8.10
2023-02-22T15:10:56.115Z,8.80
2023-02-22T15:13:26.095Z,6.70
2023-02-22T15:16:04.337Z,8.00
2023-02-22T15:18:38.423Z,6.70
2023-02-22T15:21:13.475Z,5.10
2023-02-22T15:23:44.020Z,7.00
2023-02-22T15:26:19.039Z,6.60
2023-02-22T15:28:47.243Z,7.70
2023-02-22T15:31:23.132Z,7.60
2023-02-22T15:33:53.261Z,9.20
2023-02-22T15:36:25.369Z,9.00
2023-02-22T15:38:55.886Z,9.10
2023-02-22T15:41:31.659Z,8.40
2023-02-22T15:44:14.111Z,9.20
2023-02-22T15:46:50.640Z,8.80
2023-02-22T15:49:20.898Z,7.90
2023-02-22T15:52:02.148Z,7.20
2023-02-22T15:54:31.412Z,8.20
2023-02-22T15:56:59.910Z,8.10
2023-02-22T15:59:34.325Z,8.80
2023-02-22T16:02:03.014Z,10.10
2023-02-22T16:04:31.489Z,12.50
2023-02-22T16:07:07.072Z,11.00
2023-02-22T16:09:35.366Z,12.60
2023-02-22T16:12:30.499Z,14.40
2023-02-22T16:14:58.556Z,9.30
2023-02-22T16:17:49.497Z,11.00
2023-02-22T16:20:24.877Z,8.90
2023-02-22T16:22:53.134Z,12.20
2023-02-22T16:25:22.541Z,9.00
2023-02-22T16:27:52.920Z,10.30
2023-02-22T16:30:25.777Z,9.50
2023-02-22T16:32:56.153Z,9.80
2023-02-22T16:35:31.281Z,11.40
2023-02-22T16:38:04.274Z,12.20
2023-02-22T16:40:34.668Z,17.20
2023-02-22T16:43:13.209Z,15.60
2023-02-22T16:45:42.561Z,20.20
2023-02-22T16:48:26.896Z,19.30
2023-02-22T16:50:55.750Z,20.20
2023-02-22T16:53:25.156Z,22.80
2023-02-22T16:55:57.882Z,16.70
2023-02-22T16:58:28.708Z,12.70
2023-02-22T17:00:57.665Z,12.90
2023-02-22T17:03:26.049Z,10.40
2023-02-22T17:05:54.072Z,12.30
2023-02-22T17:08:22.470Z,13.10
2023-02-22T17:10:59.565Z,12.00
2023-02-22T17:13:27.777Z,11.50
2023-02-22T17:15:56.733Z,13.90
2023-02-22T17:18:28.518Z,12.70
2023-02-22T17:20:59.574Z,14.00
2023-02-22T17:23:28.065Z,16.20
2023-02-22T17:26:00.676Z,17.20
2023-02-22T17:28:29.023Z,15.50
2023-02-22T17:31:01.993Z,13.00
2023-02-22T17:33:33.117Z,12.90
2023-02-22T17:36:02.258Z,11.90
2023-02-22T17:38:30.765Z,12.30
2023-02-22T17:41:01.466Z,10.80
2023-02-22T17:43:30.031Z,11.20
2023-02-22T17:45:58.336Z,10.40
2023-02-22T17:48:26.829Z,11.80
2023-02-22T17:50:55.015Z,15.40
2023-02-22T17:53:24.994Z,11.20
2023-02-22T17:55:53.316Z,13.70
2023-02-22T17:58:22.299Z,11.00
2023-02-22T18:00:51.668Z,14.30
2023-02-22T18:03:25.903Z,15.60
2023-02-22T18:05:57.527Z,13.80
2023-02-22T18:08:26.790Z,14.70
2023-02-22T18:10:57.893Z,9.50
2023-02-22T18:13:27.078Z,13.70
2023-02-22T18:16:00.251Z,14.60
2023-02-22T18:18:28.522Z,10.30
2023-02-22T18:21:00.159Z,11.50
2023-02-22T18:23:29.838Z,10.00
2023-02-22T18:26:10.047Z,20.30
2023-02-22T18:28:39.744Z,9.60
2023-02-22T18:31:09.123Z,12.00
2023-02-22T18:33:37.263Z,10.70
2023-02-22T18:36:05.774Z,11.50
2023-02-22T18:38:33.953Z,12.60
2023-02-22T18:41:03.357Z,14.40
2023-02-22T18:43:37.264Z,12.90
2023-02-22T18:46:16.419Z,16.70
2023-02-22T18:48:48.492Z,10.60
2023-02-22T18:51:17.442Z,11.70
2023-02-22T18:53:47.766Z,13.50
2023-02-22T18:56:21.988Z,12.70
2023-02-22T18:58:53.671Z,13.10
2023-02-22T19:01:22.203Z,15.20
2023-02-22T19:03:51.886Z,14.40
2023-02-22T19:06:22.677Z,11.40
2023-02-22T19:08:51.050Z,10.80
2023-02-22T19:11:23.443Z,12.60
2023-02-22T19:13:53.963Z,13.10
2023-02-22T19:16:23.424Z,14.90
2023-02-22T19:18:52.795Z,10.70
2023-02-22T19:21:21.891Z,12.20
2023-02-22T19:23:50.861Z,12.70
2023-02-22T19:26:21.264Z,14.40
2023-02-22T19:28:49.809Z,13.40
2023-02-22T19:31:20.114Z,12.30
2023-02-22T19:33:51.386Z,14.20
2023-02-22T19:36:19.998Z,11.60
2023-02-22T19:38:48.790Z,15.30
2023-02-22T19:41:19.073Z,14.60
2023-02-22T19:43:48.518Z,12.80
2023-02-22T19:46:21.361Z,12.70
2023-02-22T19:48:49.996Z,11.10
2023-02-22T19:51:19.540Z,13.40
2023-02-22T19:53:48.654Z,15.50
2023-02-22T19:56:19.248Z,11.30
2023-02-22T19:58:49.335Z,11.70
2023-02-22T20:01:23.045Z,11.60
2023-02-22T20:03:59.959Z,13.60
2023-02-22T20:06:30.031Z,12.90
2023-02-22T20:08:58.525Z,14.00
2023-02-22T20:11:27.272Z,10.20
2023-02-22T20:13:58.495Z,13.50
2023-02-22T20:16:27.698Z,12.50
2023-02-22T20:18:56.415Z,12.40
2023-02-22T20:21:28.024Z,15.70
2023-02-22T20:23:57.427Z,13.20
2023-02-22T20:26:26.242Z,17.20
2023-02-22T20:28:54.504Z,17.40
2023-02-22T20:31:22.861Z,16.40
2023-02-22T20:33:55.717Z,13.90
2023-02-22T20:36:24.139Z,13.50
2023-02-22T20:38:56.592Z,12.20
2023-02-22T20:41:32.930Z,11.10
2023-02-22T20:44:01.984Z,12.90
2023-02-22T20:46:36.347Z,12.50
2023-02-22T20:49:07.482Z,12.70
2023-02-22T20:51:35.800Z,13.60
2023-02-22T20:54:04.032Z,11.70
2023-02-22T20:56:32.426Z,11.00
2023-02-22T20:59:03.929Z,13.10
2023-02-22T21:01:35.424Z,11.40
2023-02-22T21:04:07.646Z,12.50
2023-02-22T21:06:40.767Z,11.40
2023-02-22T21:09:14.700Z,18.60
2023-02-22T21:11:45.216Z,11.30
2023-02-22T21:14:18.349Z,11.50
2023-02-22T21:16:47.866Z,10.00
2023-02-22T21:19:16.629Z,11.30
2023-02-22T21:21:45.737Z,9.50
2023-02-22T21:24:16.207Z,10.50
2023-02-22T21:26:48.497Z,10.50
2023-02-22T21:29:17.158Z,12.10
2023-02-22T21:31:46.342Z,12.40
2023-02-22T21:34:17.949Z,11.20
2023-02-22T21:36:46.419Z,11.30
2023-02-22T21:39:18.345Z,10.90
2023-02-22T21:41:51.097Z,10.70
2023-02-22T21:44:19.086Z,12.50
2023-02-22T21:46:50.481Z,13.10
2023-02-22T21:49:22.436Z,11.10
2023-02-22T21:51:51.772Z,12.80
2023-02-22T21:54:20.265Z,10.90
2023-02-22T21:56:48.483Z,11.20
2023-02-22T21:59:23.514Z,12.60
2023-02-22T22:01:56.086Z,12.30
2023-02-22T22:04:31.473Z,11.70
2023-02-22T22:07:00.133Z,12.50
2023-02-22T22:09:32.909Z,12.50
2023-02-22T22:12:03.183Z,12.40
2023-02-22T22:14:33.183Z,12.40
2023-02-22T22:17:02.870Z,11.40
2023-02-22T22:19:31.868Z,13.40
2023-02-22T22:22:00.340Z,15.80
2023-02-22T22:24:32.075Z,11.80
2023-02-22T22:27:03.814Z,15.10
2023-02-22T22:29:34.845Z,13.90
2023-02-22T22:32:03.366Z,13.50
2023-02-22T22:34:34.557Z,12.90
2023-02-22T22:37:03.166Z,11.40
2023-02-22T22:39:31.672Z,17.70
2023-02-22T22:41:59.870Z,14.30
2023-02-22T22:44:32.891Z,14.80
2023-02-22T22:47:01.257Z,13.90
2023-02-22T22:49:31.446Z,16.10
2023-02-22T22:51:59.575Z,12.30
2023-02-22T22:54:27.689Z,13.60
2023-02-22T22:56:55.650Z,16.30
2023-02-22T22:59:24.355Z,16.90
2023-02-22T23:01:52.435Z,12.80
2023-02-22T23:04:24.274Z,14.50
2023-02-22T23:06:53.755Z,11.70
2023-02-22T23:09:22.687Z,15.70
2023-02-22T23:11:53.975Z,15.20
2023-02-22T23:14:24.268Z,12.60
2023-02-22T23:16:53.691Z,15.60
2023-02-22T23:19:21.919Z,14.70
2023-02-22T23:21:50.185Z,15.30
2023-02-22T23:24:19.489Z,14.10
2023-02-22T23:26:50.539Z,11.60
2023-02-22T23:29:19.468Z,12.10
2023-02-22T23:31:48.804Z,15.70
2023-02-22T23:34:18.703Z,16.20
2023-02-22T23:36:47.043Z,18.40
2023-02-22T23:39:16.154Z,16.80
2023-02-22T23:41:44.250Z,14.50
2023-02-22T23:44:17.578Z,15.20
2023-02-22T23:46:48.631Z,18.00
2023-02-22T23:49:20.738Z,13.80
2023-02-22T23:51:48.996Z,15.90
2023-02-22T23:54:21.243Z,18.00
2023-02-22T23:56:58.226Z,15.20
2023-02-22T23:59:27.015Z,16.20
